Archival Weather

Chicago O'Hare International

Chicago, Illinois (KORD)

Report from: Wednesday, September 6, 2023 11:17 AM CDT
Current time: Wednesday, May 29, 2024 8:13 PM CDT

Current weather – Weather history – Daily summaries
Weather forecast

Temperature25.0°C (77.0°F)
Dew point21.1°C (70.0°F)
Winds 10 kts (5.1 m/s, 11.5 mph) South-Southwest (210°)
Visibility9 mi. (14.5 km)
Clouds Ceiling: Broken clouds 1,500 ft. (457 m)
Overcast 2,800 ft. (853 m)
Altimeter29.78 in.Hg (1008 mB)
Relative humidity79 %
Density altitude1,657 ft. (505 m)
Remarks Automated weather observing station with precipitation discriminator
Flight conditions Marginal Visual Meteorological Conditions
Raw dataKORD 061617Z 21010KT 9SM BKN015 OVC028 25/21 A2978 RMK AO2 T02500211
An error has occurred. This application may no longer respond until reloaded. Reload 🗙